Item Display Status Serial CT Sensor

Mooring Depth: 1 m

 

Deployed Sensor

  • Serial Number: 8804
  • NDBC Property Number: 35209
  • Start Date: 11/20/2016 (17:43:48 Z)
  • End Date: Currently Active
Water Temperature [°C]     6 entries per hour
Showing data from 11/24/2017 (01:00:00 Z) to 11/23/2017 (00:00:01 Z)
Previous Next [ Day | 3-Days | 7-Days ]
First Last
Prev [ Day | 3-Days | 7-Days ] Next
First Last

Start Time:     :
End Time:     :     
Time (in GMT) :00 :50 :40 :30 :20 :10
Previous Next [ Day | 3-Days | 7-Days ]
First Last
Prev [ Day | 3-Days | 7-Days ] Next
First Last


123 => good data
MM => data is determined as missing
-- => data not received/configured
Back to Top Back to Top
11/24/2017 01:00 to 0:10 28.033 28.069 28.056 28.074 28.119 28.162
11/24/2017 00:00 to 23:10 28.164 28.198 28.166 28.177 28.209 28.275
11/23/2017 23:00 to 22:10 28.309 28.305 28.303 28.235 28.318 28.319
11/23/2017 22:00 to 21:10 28.205 28.161 28.163 28.142 28.101 28.149
11/23/2017 21:00 to 20:10 28.163 28.170 28.162 28.152 28.110 28.079
11/23/2017 20:00 to 19:10 28.061 28.097 28.056 28.009 28.008 27.994
11/23/2017 19:00 to 18:10 28.013 27.975 27.955 27.948 27.920 27.906
11/23/2017 18:00 to 17:10 27.868 27.860 27.844 27.828 27.830 27.807
11/23/2017 17:00 to 16:10 27.805 27.789 27.788 27.780 27.771 27.769
11/23/2017 16:00 to 15:10 27.767 27.749 27.757 27.755 27.757 27.755
11/23/2017 15:00 to 14:10 27.746 27.744 27.747 27.761 27.761 27.763
11/23/2017 14:00 to 13:10 27.785 27.790 27.794 27.794 27.795 27.801
11/23/2017 13:00 to 12:10 27.797 27.806 27.814 27.803 27.810 27.808
11/23/2017 12:00 to 11:10 27.817 27.811 27.809 27.804 27.794 27.795
11/23/2017 11:00 to 10:10 27.795 27.792 27.786 27.795 27.780 27.784
11/23/2017 10:00 to 9:10 27.774 27.757 27.759 27.736 27.724 27.695
11/23/2017 09:00 to 8:10 27.691 27.687 27.695 27.700 27.704 27.699
11/23/2017 08:00 to 7:10 27.738 27.753 27.771 27.779 27.799 27.806
11/23/2017 07:00 to 6:10 27.803 27.801 27.810 27.806 27.814 27.808
11/23/2017 06:00 to 5:10 27.817 27.805 27.823 27.827 27.831 27.841
11/23/2017 05:00 to 4:10 27.846 27.882 27.892 27.867 27.887 27.878
11/23/2017 04:00 to 3:10 27.908 27.902 27.895 27.910 27.919 27.936
11/23/2017 03:00 to 2:10 27.915 27.971 27.977 27.961 27.937 27.967
11/23/2017 02:00 to 1:10 27.998 28.001 28.017 28.060 28.041 28.068
11/23/2017 01:00 to 0:10 28.081 28.092 28.075 28.097 28.103 28.112

 

 

 

Conductivity [S/m]     6 entries per hour
Showing data from 9/13/2017 (18:40:00 Z) to 9/12/2017 (00:00:01 Z)
Previous Next [ Day | 3-Days | 7-Days ]
First Last
Prev [ Day | 3-Days | 7-Days ] Next
First Last

Start Time:     :
End Time:     :     
Time (in GMT) :00 :50 :40 :30 :20 :10
Previous Next [ Day | 3-Days | 7-Days ]
First Last
Prev [ Day | 3-Days | 7-Days ] Next
First Last


123 => good data
MM => data is determined as missing
-- => data not received/configured
Back to Top Back to Top
9/13/2017 19:00 to 18:10 -- -- 5.44655 5.44576 5.44648 5.44714
9/13/2017 18:00 to 17:10 5.44614 5.44835 5.44748 5.44520 5.44733 5.44791
9/13/2017 17:00 to 16:10 5.44614 5.46482 5.46393 5.46446 5.46446 5.46369
9/13/2017 16:00 to 15:10 5.46348 5.46254 5.46346 5.46335 5.46517 5.46543
9/13/2017 15:00 to 14:10 5.46396 5.46293 5.46347 5.46325 5.46395 5.46331
9/13/2017 14:00 to 13:10 5.46270 5.46345 5.46469 5.46409 5.46388 5.46390
9/13/2017 13:00 to 12:10 5.46211 5.46448 5.46274 5.46252 5.46251 5.46387
9/13/2017 12:00 to 11:10 5.46243 5.46312 5.46302 5.46358 5.46291 5.46329
9/13/2017 11:00 to 10:10 5.46247 5.46232 5.46336 5.46148 5.46307 5.46303
9/13/2017 10:00 to 9:10 5.46251 5.46197 5.46285 5.46216 5.46264 5.46314
9/13/2017 09:00 to 8:10 5.46259 5.46291 5.46260 5.46241 5.46182 5.46388
9/13/2017 08:00 to 7:10 5.46232 5.46299 5.46137 5.46246 5.46238 5.46285
9/13/2017 07:00 to 6:10 5.46190 5.46286 5.46141 5.46219 5.46256 5.46184
9/13/2017 06:00 to 5:10 5.46339 5.46312 5.46427 5.46582 5.46545 5.46542
9/13/2017 05:00 to 4:10 5.46624 5.46579 5.46717 5.46695 5.46740 5.46929
9/13/2017 04:00 to 3:10 5.46935 5.46816 5.46766 5.46818 5.46835 5.46726
9/13/2017 03:00 to 2:10 5.46809 5.46777 5.46629 5.46697 5.46770 5.46718
9/13/2017 02:00 to 1:10 5.46548 5.46634 5.46625 5.46587 5.46402 5.46526
9/13/2017 01:00 to 0:10 5.46453 5.46495 5.46483 5.46496 5.46464 5.46468
9/13/2017 00:00 to 23:10 5.46480 5.46504 5.46505 5.46443 5.46420 5.46483
9/12/2017 23:00 to 22:10 5.46463 5.46408 5.46463 5.46476 5.46379 5.46438
9/12/2017 22:00 to 21:10 5.46412 5.46468 5.46392 5.46409 5.46537 5.46429
9/12/2017 21:00 to 20:10 5.46545 5.46483 5.46570 5.46421 5.46532 5.46571
9/12/2017 20:00 to 19:10 5.46544 5.46544 5.46613 5.46598 5.46488 5.46435
9/12/2017 19:00 to 18:10 5.46501 5.46419 5.46458 5.46369 5.46357 5.46248
9/12/2017 18:00 to 17:10 5.46285 5.46300 5.46261 5.46179 5.46132 5.46116
9/12/2017 17:00 to 16:10 5.46051 5.46079 5.46056 5.46096 5.46008 5.45979
9/12/2017 16:00 to 15:10 5.45936 5.45883 5.45836 5.45933 5.45958 5.45753
9/12/2017 15:00 to 14:10 5.45864 5.45739 5.45729 5.45710 5.45575 5.45571
9/12/2017 14:00 to 13:10 5.45717 5.45619 5.45520 5.45417 5.45501 5.45492
9/12/2017 13:00 to 12:10 5.45494 5.45528 5.45509 5.45478 5.45486 5.45468
9/12/2017 12:00 to 11:10 5.45384 5.45341 5.45393 5.45253 5.45232 5.45252
9/12/2017 11:00 to 10:10 5.45141 5.45193 5.45172 5.45121 5.44930 5.44862
9/12/2017 10:00 to 9:10 5.44977 5.44869 5.45023 5.44860 5.44818 5.44856
9/12/2017 09:00 to 8:10 5.44966 5.44921 5.44939 5.44777 5.44840 5.44847
9/12/2017 08:00 to 7:10 5.44853 5.44875 5.44863 5.44869 5.44931 5.45015
9/12/2017 07:00 to 6:10 5.44993 5.45020 5.44996 5.44941 5.45003 5.45043
9/12/2017 06:00 to 5:10 5.45023 5.45108 5.45043 5.44954 5.44973 5.44947
9/12/2017 05:00 to 4:10 5.44893 5.44942 5.44996 5.44971 5.44941 5.44932
9/12/2017 04:00 to 3:10 5.44917 5.44923 5.44872 5.44972 5.44836 5.44861
9/12/2017 03:00 to 2:10 5.44889 5.44947 5.44853 5.44938 5.44886 5.44893
9/12/2017 02:00 to 1:10 5.45047 5.45028 5.45111 5.45167 5.45169 5.45236
9/12/2017 01:00 to 0:10 5.45266 5.45353 5.45379 5.45399 5.45462 5.45479

 

 

 

Salinity [psu]     6 entries per hour
Showing data from 9/13/2017 (18:40:00 Z) to 9/12/2017 (00:00:01 Z)
Previous Next [ Day | 3-Days | 7-Days ]
First Last
Prev [ Day | 3-Days | 7-Days ] Next
First Last

Start Time:     :
End Time:     :     
Time (in GMT) :00 :50 :40 :30 :20 :10
Previous Next [ Day | 3-Days | 7-Days ]
First Last
Prev [ Day | 3-Days | 7-Days ] Next
First Last


123 => good data
MM => data is determined as missing
-- => data not received/configured
Back to Top Back to Top
9/13/2017 19:00 to 18:10 -- -- 33.81 33.81 33.81 33.82
9/13/2017 18:00 to 17:10 33.82 33.82 33.82 33.81 33.83 33.83
9/13/2017 17:00 to 16:10 33.82 33.91 33.92 33.92 33.91 33.92
9/13/2017 16:00 to 15:10 33.91 33.91 33.92 33.92 33.92 33.92
9/13/2017 15:00 to 14:10 33.91 33.91 33.91 33.91 33.91 33.91
9/13/2017 14:00 to 13:10 33.92 33.91 33.91 33.91 33.91 33.91
9/13/2017 13:00 to 12:10 33.91 33.91 33.91 33.91 33.91 33.91
9/13/2017 12:00 to 11:10 33.91 33.90 33.91 33.90 33.90 33.90
9/13/2017 11:00 to 10:10 33.90 33.89 33.90 33.90 33.89 33.89
9/13/2017 10:00 to 9:10 33.89 33.89 33.88 33.89 33.89 33.88
9/13/2017 09:00 to 8:10 33.88 33.88 33.88 33.89 33.89 33.88
9/13/2017 08:00 to 7:10 33.89 33.88 33.88 33.88 33.88 33.88
9/13/2017 07:00 to 6:10 33.88 33.88 33.88 33.88 33.88 33.88
9/13/2017 06:00 to 5:10 33.88 33.88 33.89 33.89 33.89 33.89
9/13/2017 05:00 to 4:10 33.89 33.89 33.89 33.89 33.90 33.90
9/13/2017 04:00 to 3:10 33.90 33.91 33.90 33.90 33.90 33.90
9/13/2017 03:00 to 2:10 33.90 33.89 33.90 33.90 33.89 33.89
9/13/2017 02:00 to 1:10 33.89 33.89 33.88 33.88 33.88 33.88
9/13/2017 01:00 to 0:10 33.88 33.88 33.88 33.88 33.88 33.88
9/13/2017 00:00 to 23:10 33.87 33.87 33.87 33.87 33.88 33.87
9/12/2017 23:00 to 22:10 33.87 33.87 33.87 33.87 33.87 33.87
9/12/2017 22:00 to 21:10 33.87 33.88 33.87 33.87 33.87 33.88
9/12/2017 21:00 to 20:10 33.87 33.87 33.87 33.87 33.87 33.87
9/12/2017 20:00 to 19:10 33.88 33.88 33.87 33.87 33.87 33.87
9/12/2017 19:00 to 18:10 33.87 33.87 33.87 33.87 33.87 33.86
9/12/2017 18:00 to 17:10 33.86 33.86 33.86 33.86 33.86 33.86
9/12/2017 17:00 to 16:10 33.86 33.86 33.86 33.85 33.85 33.85
9/12/2017 16:00 to 15:10 33.85 33.85 33.85 33.84 33.84 33.84
9/12/2017 15:00 to 14:10 33.84 33.83 33.83 33.83 33.82 33.82
9/12/2017 14:00 to 13:10 33.82 33.82 33.81 33.81 33.81 33.81
9/12/2017 13:00 to 12:10 33.81 33.80 33.80 33.79 33.79 33.79
9/12/2017 12:00 to 11:10 33.79 33.79 33.78 33.78 33.78 33.78
9/12/2017 11:00 to 10:10 33.77 33.77 33.77 33.77 33.77 33.76
9/12/2017 10:00 to 9:10 33.76 33.76 33.75 33.75 33.75 33.75
9/12/2017 09:00 to 8:10 33.75 33.74 33.75 33.75 33.74 33.74
9/12/2017 08:00 to 7:10 33.73 33.73 33.73 33.73 33.73 33.73
9/12/2017 07:00 to 6:10 33.72 33.73 33.73 33.72 33.72 33.72
9/12/2017 06:00 to 5:10 33.72 33.72 33.72 33.72 33.72 33.72
9/12/2017 05:00 to 4:10 33.72 33.72 33.71 33.72 33.72 --
9/12/2017 04:00 to 3:10 33.71 33.71 33.71 33.71 33.71 33.71
9/12/2017 03:00 to 2:10 33.72 33.71 33.72 33.71 33.71 33.71
9/12/2017 02:00 to 1:10 33.71 33.71 33.71 33.71 33.71 33.71
9/12/2017 01:00 to 0:10 33.72 33.72 33.72 33.72 33.72 33.72